Time;durP1;ratioP1;P1;durP2;ratioP2;P2;SDS_P1;SDS_P2;PMS_P1;PMS_P2;Temp;Humidity;BMP_temperature;BMP_pressure;BME280_temperature;BME280_humidity;BME280_pressure;Samples;Min_cycle;Max_cycle;Signal;HPM_P1;HPM_P2
2022/08/08 00:02:10;;;;;;;3.10;2.70;;;;;;;-145.69;100.00;71712.81;5014308;28;20239;-77
2022/08/08 00:04:45;;;;;;;4.33;2.20;;;;;;;-145.69;100.00;71724.75;5014762;28;20341;-77
2022/08/08 00:07:18;;;;;;;4.10;2.50;;;;;;;-145.69;100.00;71728.75;5015108;28;20208;-77
2022/08/08 00:09:55;;;;;;;3.03;2.47;;;;;;;-145.69;100.00;71756.59;5013809;28;20193;-78
2022/08/08 00:12:27;;;;;;;3.30;2.73;;;;;;;-145.69;100.00;71768.53;5013890;28;20610;-77
2022/08/08 00:15:01;;;;;;;3.00;2.67;;;;;;;-145.69;100.00;71776.50;5014555;28;20678;-77
2022/08/08 00:17:38;;;;;;;3.83;2.60;;;;;;;-145.69;100.00;71780.50;5014244;28;20207;-76
2022/08/08 00:20:07;;;;;;;3.50;2.87;;;;;;;-145.69;100.00;71790.44;5014140;28;20204;-77
2022/08/08 00:22:40;;;;;;;3.77;2.93;;;;;;;-145.69;100.00;71792.44;4994099;28;20233;-77
2022/08/08 00:25:12;;;;;;;5.30;2.90;;;;;;;-145.69;100.00;71804.38;4994424;28;20205;-76
2022/08/08 00:27:40;;;;;;;3.43;2.77;;;;;;;-145.69;100.00;71794.41;4994563;28;20201;-76
2022/08/08 00:30:10;;;;;;;4.40;3.20;;;;;;;-145.69;100.00;71768.53;4994536;28;20212;-76
2022/08/08 00:32:43;;;;;;;3.70;2.83;;;;;;;-145.69;100.00;71762.56;5000045;28;20196;-76
2022/08/08 00:35:44;;;;;;;4.53;3.03;;;;;;;-145.69;100.00;71766.56;5014033;28;20385;-76
2022/08/08 00:38:23;;;;;;;4.47;3.13;;;;;;;-145.69;100.00;71778.50;4981705;28;20200;-76
2022/08/08 00:41:28;;;;;;;6.10;2.97;;;;;;;-145.69;100.00;71796.41;5013918;28;20694;-75
2022/08/08 00:44:13;;;;;;;4.60;3.03;;;;;;;-145.69;100.00;71788.44;4979979;28;20212;-77
2022/08/08 00:47:33;;;;;;;4.00;2.87;;;;;;;-145.69;100.00;71770.53;5013878;28;20196;-78
2022/08/08 00:50:23;;;;;;;3.30;3.00;;;;;;;-145.69;100.00;71742.69;5013238;28;20212;-76
2022/08/08 00:52:57;;;;;;;3.40;3.00;;;;;;;-145.69;100.00;71734.72;5013693;28;20209;-77
2022/08/08 00:56:01;;;;;;;4.10;2.83;;;;;;;-145.69;100.00;71736.72;5013535;28;20208;-77
2022/08/08 00:59:02;;;;;;;4.70;3.00;;;;;;;-145.69;100.00;71728.75;5010804;28;20442;-78
2022/08/08 01:01:39;;;;;;;2.77;2.50;;;;;;;-145.69;100.00;71724.75;5013474;28;20228;-77
2022/08/08 01:04:32;;;;;;;5.97;2.87;;;;;;;-145.69;100.00;71716.81;5013460;28;20204;-78
2022/08/08 01:07:51;;;;;;;6.77;3.20;;;;;;;-145.69;100.00;71712.81;5013272;28;20244;-77
2022/08/08 01:11:03;;;;;;;4.00;2.90;;;;;;;-145.69;100.00;71694.91;4993898;28;20208;-78
2022/08/08 01:13:53;;;;;;;5.10;2.70;;;;;;;-145.69;100.00;71704.88;5012974;28;20211;-77
2022/08/08 01:16:53;;;;;;;4.97;2.87;;;;;;;-145.69;100.00;71698.91;5013452;28;20638;-78
2022/08/08 01:22:35;;;;;;;4.57;2.47;;;;;;;-145.69;100.00;71696.91;5110865;27;20549;-76
2022/08/08 01:25:40;;;;;;;4.23;2.70;;;;;;;-145.69;100.00;71710.84;5110670;28;20205;-76
2022/08/08 01:28:17;;;;;;;5.70;2.70;;;;;;;-145.69;100.00;71708.84;5076535;28;20197;-77
2022/08/08 01:31:13;;;;;;;2.87;2.33;;;;;;;-145.69;100.00;71724.75;5110692;28;20185;-77
2022/08/08 01:34:14;;;;;;;3.90;2.70;;;;;;;-145.69;100.00;71720.78;5110360;28;20677;-76
2022/08/08 01:37:18;;;;;;;5.43;3.10;;;;;;;-145.69;100.00;71728.75;5065594;28;20208;-78
2022/08/08 01:40:04;;;;;;;3.77;3.00;;;;;;;-145.69;100.00;71730.72;5110643;28;20205;-77
2022/08/08 01:42:35;;;;;;;5.00;3.27;;;;;;;-145.69;100.00;71736.72;5110226;28;20231;-77
2022/08/08 01:45:13;;;;;;;5.33;3.10;;;;;;;-145.69;100.00;71732.72;5110319;28;20202;-76
2022/08/08 01:47:53;;;;;;;3.37;2.77;;;;;;;-145.69;100.00;71752.63;5110433;28;20197;-76
2022/08/08 01:50:32;;;;;;;4.10;2.93;;;;;;;-145.69;100.00;71752.63;5110394;28;20208;-77
2022/08/08 01:53:07;;;;;;;5.00;3.30;;;;;;;-145.69;100.00;71748.66;5110247;28;20318;-76
2022/08/08 01:55:42;;;;;;;3.97;2.90;;;;;;;-145.69;100.00;71744.66;5108037;28;20201;-76
2022/08/08 01:58:21;;;;;;;9.43;3.60;;;;;;;-145.69;100.00;71740.69;5110125;28;20647;-76
2022/08/08 02:00:58;;;;;;;3.80;3.17;;;;;;;-145.69;100.00;71732.72;5109923;28;20220;-76
2022/08/08 02:03:34;;;;;;;4.80;3.40;;;;;;;-145.69;100.00;71740.69;5109461;28;20224;-76
2022/08/08 02:06:12;;;;;;;3.47;3.13;;;;;;;-145.69;100.00;71754.63;5109979;28;20193;-75
2022/08/08 02:08:51;;;;;;;4.23;3.10;;;;;;;-145.69;100.00;71748.66;5110086;28;20204;-76
2022/08/08 02:11:29;;;;;;;5.30;3.40;;;;;;;-145.69;100.00;71760.59;5108917;28;20601;-77
2022/08/08 02:14:01;;;;;;;5.27;2.73;;;;;;;-145.69;100.00;71772.53;5109984;28;20204;-75
2022/08/08 02:16:35;;;;;;;4.00;3.20;;;;;;;-145.69;100.00;71766.56;5109744;28;20582;-76
2022/08/08 02:19:11;;;;;;;3.43;3.10;;;;;;;-145.69;100.00;71768.53;5109682;28;20216;-77
2022/08/08 02:24:46;;;;;;;5.37;3.10;;;;;;;-145.69;100.00;71772.53;5109836;28;20197;-77
2022/08/08 02:27:18;;;;;;;4.90;3.60;;;;;;;-145.69;100.00;71782.47;5109386;28;20205;-76
2022/08/08 02:30:04;;;;;;;5.13;3.40;;;;;;;-145.69;100.00;71804.38;5109136;28;20194;-76
2022/08/08 02:32:52;;;;;;;9.73;3.50;;;;;;;-145.69;100.00;71810.34;5101873;28;20205;-77
2022/08/08 02:35:43;;;;;;;8.13;4.17;;;;;;;-145.69;100.00;71812.31;5096083;28;20198;-77
2022/08/08 02:38:46;;;;;;;7.57;4.10;;;;;;;-145.69;100.00;71804.38;5095254;28;20201;-76
2022/08/08 02:41:48;;;;;;;3.80;3.40;;;;;;;-145.69;100.00;71804.38;5095509;28;20235;-75
2022/08/08 02:44:50;;;;;;;3.83;3.10;;;;;;;-145.69;100.00;71814.31;5095804;28;20193;-76
2022/08/08 02:47:52;;;;;;;7.23;3.60;;;;;;;-145.69;100.00;71840.19;5095568;28;20204;-77
2022/08/08 02:51:05;;;;;;;3.00;2.67;;;;;;;-145.69;100.00;71866.06;5069443;28;20200;-77
2022/08/08 02:54:02;;;;;;;4.10;3.53;;;;;;;-145.69;100.00;71885.97;5094808;28;20529;-76
2022/08/08 02:56:55;;;;;;;4.70;3.00;;;;;;;-145.69;100.00;71899.88;5095389;28;20202;-76
2022/08/08 02:59:58;;;;;;;5.33;4.10;;;;;;;-145.69;100.00;71901.88;5095434;28;20205;-78
2022/08/08 03:02:59;;;;;;;5.73;4.53;;;;;;;-145.69;100.00;71897.91;5095212;28;20214;-77
2022/08/08 03:05:52;;;;;;;5.53;4.23;;;;;;;-145.69;100.00;71901.88;5094909;28;20202;-78
2022/08/08 03:08:53;;;;;;;5.77;4.03;;;;;;;-145.69;100.00;71911.84;5095247;28;20206;-76
2022/08/08 03:12:02;;;;;;;5.87;3.80;;;;;;;-145.69;100.00;71903.88;5095372;28;20201;-76
2022/08/08 03:14:56;;;;;;;5.97;4.60;;;;;;;-145.69;100.00;71876.00;5094314;28;20197;-76
2022/08/08 03:17:29;;;;;;;9.73;4.07;;;;;;;-145.69;100.00;71893.91;5095288;28;20202;-77
2022/08/08 03:20:04;;;;;;;5.40;3.80;;;;;;;-145.69;100.00;71925.75;5094982;28;20202;-77
2022/08/08 03:22:30;;;;;;;6.97;4.00;;;;;;;-145.69;100.00;71923.78;5094357;28;20229;-76
2022/08/08 03:24:58;;;;;;;6.10;4.33;;;;;;;-145.69;100.00;71915.81;5094689;28;20209;-78
2022/08/08 03:27:33;;;;;;;6.13;4.73;;;;;;;-145.69;100.00;71919.78;5094861;28;20201;-77
2022/08/08 03:30:05;;;;;;;7.37;4.27;;;;;;;-145.69;100.00;71923.78;5094976;28;20197;-76
2022/08/08 03:35:17;;;;;;;5.97;4.03;;;;;;;-145.69;100.00;71963.56;5094873;28;20197;-75
2022/08/08 03:37:45;;;;;;;5.70;4.13;;;;;;;-145.69;100.00;71971.53;5094598;28;20240;-76
2022/08/08 03:40:13;;;;;;;7.20;4.57;;;;;;;-145.69;100.00;71979.50;5094352;28;20198;-76
2022/08/08 03:42:41;;;;;;;6.47;4.53;;;;;;;-145.69;100.00;71995.41;5094571;28;20591;-76
2022/08/08 03:45:17;;;;;;;5.67;4.57;;;;;;;-145.69;100.00;71995.41;5093514;28;20194;-78
2022/08/08 03:47:44;;;;;;;7.17;5.10;;;;;;;-145.69;100.00;72011.34;5094730;28;20233;-76
2022/08/08 03:50:18;;;;;;;7.87;5.10;;;;;;;-145.69;100.00;72025.28;5093267;28;20652;-78
2022/08/08 03:52:45;;;;;;;6.60;4.63;;;;;;;-145.69;100.00;72023.28;5094362;28;20206;-77
2022/08/08 03:55:15;;;;;;;5.67;4.53;;;;;;;-145.69;100.00;72019.31;5094357;28;20198;-77
2022/08/08 03:57:46;;;;;;;8.33;4.77;;;;;;;-145.69;100.00;72023.28;5094105;28;20648;-77
2022/08/08 04:00:14;;;;;;;12.20;5.37;;;;;;;-145.69;100.00;72027.25;5094195;28;20226;-76
2022/08/08 04:02:40;;;;;;;8.47;5.70;;;;;;;-145.69;100.00;72029.25;5093418;28;20221;-76
2022/08/08 04:05:07;;;;;;;7.63;5.20;;;;;;;-145.69;100.00;72033.22;5094387;28;20202;-75
2022/08/08 04:07:38;;;;;;;8.60;5.90;;;;;;;-145.69;100.00;72023.28;5093671;28;20201;-76
2022/08/08 04:10:06;;;;;;;12.77;7.60;;;;;;;-145.69;100.00;71979.50;5094170;28;20225;-79
2022/08/08 04:12:34;;;;;;;16.90;8.07;;;;;;;-145.69;100.00;71931.72;5093726;28;20556;-77
2022/08/08 04:15:01;;;;;;;12.77;8.20;;;;;;;-145.69;100.00;71911.84;5093955;28;20198;-79
2022/08/08 04:17:28;;;;;;;16.87;7.47;;;;;;;-145.69;100.00;71901.88;5093938;28;20205;-76
2022/08/08 04:19:55;;;;;;;11.77;7.30;;;;;;;-145.69;100.00;71891.94;5093891;28;20194;-77
2022/08/08 04:22:21;;;;;;;10.23;7.70;;;;;;;-145.69;100.00;71880.00;5093857;28;20606;-77
2022/08/08 04:24:48;;;;;;;11.40;7.07;;;;;;;-145.69;100.00;71874.03;5093628;28;20196;-77
2022/08/08 04:27:14;;;;;;;9.97;6.43;;;;;;;-145.69;100.00;71868.06;5093861;28;20205;-76
2022/08/08 04:29:42;;;;;;;13.80;6.83;;;;;;;-145.69;100.00;71852.13;5093621;28;20220;-77
2022/08/08 04:32:13;;;;;;;13.27;6.43;;;;;;;-145.69;100.00;71860.09;5093781;28;20221;-76
2022/08/08 04:34:40;;;;;;;12.00;6.63;;;;;;;-145.69;100.00;71852.13;5093557;28;20293;-76
2022/08/08 04:37:06;;;;;;;9.63;5.87;;;;;;;-145.69;100.00;71846.16;5093413;28;20221;-76
2022/08/08 04:39:33;;;;;;;12.40;6.10;;;;;;;-145.69;100.00;71840.19;5093574;28;20687;-76
2022/08/08 04:41:59;;;;;;;8.93;6.40;;;;;;;-145.69;100.00;71840.19;5093352;28;20230;-76
2022/08/08 04:44:26;;;;;;;8.73;6.50;;;;;;;-145.69;100.00;71832.22;5093685;28;20202;-76
2022/08/08 04:46:54;;;;;;;8.57;6.50;;;;;;;-145.69;100.00;71832.22;5093234;28;20198;-77
2022/08/08 04:49:20;;;;;;;9.93;5.87;;;;;;;-145.69;100.00;71824.25;5093135;28;20656;-76
2022/08/08 04:51:47;;;;;;;10.63;5.80;;;;;;;-145.69;100.00;71816.31;5093589;28;20202;-76
2022/08/08 04:54:13;;;;;;;9.47;6.30;;;;;;;-145.69;100.00;71810.34;5093200;28;20197;-77
2022/08/08 04:56:40;;;;;;;9.47;6.23;;;;;;;-145.69;100.00;71800.38;5092484;28;20507;-76
2022/08/08 04:59:06;;;;;;;7.77;6.00;;;;;;;-145.69;100.00;71784.47;5092978;28;20198;-77
2022/08/08 05:01:33;;;;;;;7.93;5.53;;;;;;;-145.69;100.00;71786.47;5093063;28;20222;-77
2022/08/08 05:04:01;;;;;;;7.27;5.40;;;;;;;-145.69;100.00;71790.44;5093304;28;20213;-76
2022/08/08 05:06:27;;;;;;;6.60;5.17;;;;;;;-145.69;100.00;71778.50;5093172;28;20206;-76
2022/08/08 05:08:54;;;;;;;7.87;5.43;;;;;;;-145.69;100.00;71760.59;5093059;28;20205;-77
2022/08/08 05:11:21;;;;;;;7.83;5.40;;;;;;;-145.69;100.00;71752.63;5092743;28;20202;-77
2022/08/08 05:13:47;;;;;;;10.50;5.77;;;;;;;-145.69;100.00;71740.69;5092706;28;20197;-78
2022/08/08 05:16:14;;;;;;;7.97;4.77;;;;;;;-145.69;100.00;71734.72;5093215;28;20231;-76
2022/08/08 05:18:40;;;;;;;7.00;5.00;;;;;;;-145.69;100.00;71726.75;5093038;28;20198;-75
2022/08/08 05:21:09;;;;;;;12.27;4.93;;;;;;;-145.69;100.00;71716.81;5092917;28;20238;-78
2022/08/08 05:23:36;;;;;;;7.63;5.03;;;;;;;-145.69;100.00;71698.91;5092780;28;20193;-77
2022/08/08 05:26:03;;;;;;;7.00;5.37;;;;;;;-145.69;100.00;71665.06;5092520;28;20202;-76
2022/08/08 05:28:30;;;;;;;10.80;5.40;;;;;;;-145.69;100.00;71645.16;5092815;28;20202;-76
2022/08/08 05:30:57;;;;;;;5.50;4.40;;;;;;;-145.69;100.00;71647.16;5092860;28;20210;-76
2022/08/08 05:33:23;;;;;;;6.13;4.53;;;;;;;-145.69;100.00;71655.13;5092668;28;20652;-76
2022/08/08 05:35:53;;;;;;;6.90;4.60;;;;;;;-145.69;100.00;71649.16;5092513;28;20193;-76
2022/08/08 05:38:25;;;;;;;5.87;4.30;;;;;;;-145.69;100.00;71631.25;5092695;28;20571;-75
2022/08/08 05:40:53;;;;;;;8.05;4.82;;;;;;;-145.69;100.00;71607.34;5092697;28;20648;-75
2022/08/08 05:43:25;;;;;;;8.47;4.60;;;;;;;-145.69;100.00;71581.50;5092646;28;20459;-76
2022/08/08 05:45:56;;;;;;;6.47;4.13;;;;;;;-145.69;100.00;71553.63;5092495;28;20289;-76
2022/08/08 05:48:23;;;;;;;7.18;4.50;;;;;;;-145.69;100.00;71537.72;5092449;28;20330;-76
2022/08/08 05:50:50;;;;;;;6.75;4.38;;;;;;;-145.69;100.00;71509.84;5092595;28;20209;-76
2022/08/08 05:53:17;;;;;;;7.20;4.15;;;;;;;-145.69;100.00;71489.94;5092428;28;20213;-77
2022/08/08 05:55:45;;;;;;;7.03;3.88;;;;;;;-145.69;100.00;71450.16;5092819;28;20195;-76
2022/08/08 05:58:13;;;;;;;7.55;3.58;;;;;;;-145.69;100.00;71440.19;5092731;28;20198;-77
2022/08/08 06:00:40;;;;;;;6.43;3.53;;;;;;;-145.69;100.00;71412.34;5092070;28;20194;-78
2022/08/08 06:03:15;;;;;;;7.35;3.25;;;;;;;-145.69;100.00;71396.44;5092338;28;20691;-77
2022/08/08 06:05:48;;;;;;;5.15;3.28;;;;;;;-145.69;100.00;71394.44;5092493;28;20205;-75
2022/08/08 06:08:17;;;;;;;3.33;2.72;;;;;;;-145.69;100.00;71396.44;5095198;28;20205;-76
2022/08/08 06:10:46;;;;;;;4.60;3.05;;;;;;;-145.69;100.00;71396.44;5096451;28;20221;-77
2022/08/08 06:13:12;;;;;;;5.82;3.17;;;;;;;-145.69;100.00;71380.50;5096134;28;20198;-77
2022/08/08 06:15:41;;;;;;;5.65;2.80;;;;;;;-145.69;100.00;71364.59;5095966;28;20202;-77
2022/08/08 06:18:09;;;;;;;3.67;2.85;;;;;;;-145.69;100.00;71370.56;5096117;28;20202;-76
2022/08/08 06:20:37;;;;;;;5.22;2.70;;;;;;;-145.69;100.00;71334.75;5095067;28;20444;-77
2022/08/08 06:23:03;;;;;;;4.10;2.75;;;;;;;-145.69;91.98;71281.00;5096202;28;20225;-77
2022/08/08 06:25:31;;;;;;;3.67;2.78;;;;;;;-145.69;94.67;71259.13;5095908;28;20194;-76
2022/08/08 06:28:03;;;;;;;3.70;2.53;;;;;;;-145.69;89.41;71219.34;5096027;28;20206;-76
2022/08/08 06:30:32;;;;;;;4.72;2.85;;;;;;;-145.69;88.00;71177.53;5095908;28;20209;-76
2022/08/08 06:33:00;;;;;;;3.40;2.60;;;;;;;-145.69;85.83;71157.66;5095841;28;20553;-78
2022/08/08 06:35:29;;;;;;;3.35;2.38;;;;;;;-145.69;85.69;71137.75;5095826;28;20210;-77
2022/08/08 06:37:58;;;;;;;3.13;2.63;;;;;;;-145.69;85.73;71131.78;5095817;28;20673;-78
2022/08/08 06:40:30;;;;;;;3.38;2.45;;;;;;;-145.69;83.50;71121.84;5095853;28;20327;-77
2022/08/08 06:43:02;;;;;;;6.70;2.40;;;;;;;-145.69;83.83;71111.88;5095750;28;20283;-76
2022/08/08 06:45:32;;;;;;;3.40;2.28;;;;;;;-145.69;82.43;71099.94;5095832;28;20194;-76
2022/08/08 06:48:00;;;;;;;2.75;1.95;;;;;;;-145.69;80.96;71095.97;5095606;28;20198;-77
2022/08/08 06:50:27;;;;;;;4.68;2.25;;;;;;;-145.69;80.33;71084.03;5095532;28;20194;-77
2022/08/08 06:52:53;;;;;;;3.88;2.35;;;;;;;-145.69;79.65;71072.09;5095509;28;20202;-77
2022/08/08 06:55:22;;;;;;;3.90;2.30;;;;;;;-145.69;77.62;71056.16;5094753;28;20433;-74
2022/08/08 06:57:48;;;;;;;5.63;1.98;;;;;;;-145.69;75.89;71046.22;5095286;28;20472;-76
2022/08/08 07:00:17;;;;;;;2.33;1.83;;;;;;;-145.69;75.23;71050.22;5095296;28;20238;-76
2022/08/08 07:02:52;;;;;;;3.65;1.92;;;;;;;-145.69;74.49;71028.31;5095408;28;20225;-76
2022/08/08 07:05:23;;;;;;;3.53;2.00;;;;;;;-145.69;72.12;71038.25;5087298;28;20198;-76
2022/08/08 07:08:02;;;;;;;4.35;1.85;;;;;;;-145.69;74.14;71016.38;5075085;28;20206;-76
2022/08/08 07:10:35;;;;;;;4.43;2.10;;;;;;;-145.69;68.72;71014.38;5075228;28;20293;-77
2022/08/08 07:13:05;;;;;;;2.85;1.60;;;;;;;-145.69;70.41;71006.44;5086820;28;20203;-76
2022/08/08 07:15:37;;;;;;;2.45;1.85;;;;;;;-145.69;68.81;70984.53;5095335;28;20204;-76
2022/08/08 07:18:05;;;;;;;6.20;2.03;;;;;;;-145.69;68.94;70984.53;5095017;28;20202;-76
2022/08/08 07:20:36;;;;;;;2.55;1.50;;;;;;;-145.69;68.79;70988.53;5094853;28;20226;-76
2022/08/08 07:23:05;;;;;;;3.17;1.60;;;;;;;-145.69;66.84;70988.53;5094716;28;20230;-76
2022/08/08 07:25:38;;;;;;;3.20;1.52;;;;;;;-145.69;66.38;70972.59;5094482;28;20530;-75
2022/08/08 07:28:08;;;;;;;4.45;1.98;;;;;;;-145.69;66.46;70956.69;5094784;28;20198;-76
2022/08/08 07:30:37;;;;;;;2.25;1.63;;;;;;;-145.69;65.68;70946.75;5094765;28;20198;-75
2022/08/08 07:33:03;;;;;;;2.08;1.70;;;;;;;-145.69;66.69;70934.81;5094555;28;20568;-75
2022/08/08 07:35:30;;;;;;;2.45;1.70;;;;;;;-145.69;65.28;70922.88;5094863;28;20194;-78
2022/08/08 07:37:58;;;;;;;3.15;1.70;;;;;;;-145.69;62.18;70924.84;5094505;28;20225;-76
2022/08/08 07:40:26;;;;;;;3.63;1.85;;;;;;;-145.69;62.86;70916.91;5094766;28;20205;-75
2022/08/08 07:42:54;;;;;;;4.03;1.77;;;;;;;-145.69;62.04;70930.81;5094464;28;20257;-76
2022/08/08 07:45:21;;;;;;;2.78;1.80;;;;;;;-145.69;63.69;70922.88;5094473;28;20202;-77
2022/08/08 07:47:49;;;;;;;6.00;1.77;;;;;;;-145.69;62.03;70918.88;5094759;28;20205;-78
2022/08/08 07:50:16;;;;;;;5.30;1.90;;;;;;;-145.69;63.93;70885.06;5094383;28;20276;-77
2022/08/08 07:52:46;;;;;;;3.08;1.60;;;;;;;-145.69;57.76;70891.03;5094383;28;20241;-77
2022/08/08 07:55:18;;;;;;;4.00;1.98;;;;;;;-145.69;67.39;70881.09;5094501;28;20205;-76
2022/08/08 07:57:52;;;;;;;1.55;1.40;;;;;;;-145.69;62.59;70875.13;5094366;28;20630;-78
2022/08/08 08:00:18;;;;;;;3.20;1.60;;;;;;;-145.69;62.53;70857.22;5093892;28;20194;-77
2022/08/08 08:02:55;;;;;;;3.67;1.75;;;;;;;-145.69;57.86;70869.16;5094403;28;20229;-76
2022/08/08 08:05:24;;;;;;;3.13;1.70;;;;;;;-145.69;59.82;70849.25;5093734;28;20206;-75
2022/08/08 08:07:54;;;;;;;1.80;1.33;;;;;;;-145.69;57.64;70867.16;5094059;28;20194;-77
2022/08/08 08:10:24;;;;;;;3.00;1.58;;;;;;;-145.69;59.54;70837.31;5094349;28;20556;-75
2022/08/08 08:12:53;;;;;;;3.90;1.75;;;;;;;-145.69;57.89;70829.34;5094106;28;20194;-75
2022/08/08 08:15:24;;;;;;;4.57;1.55;;;;;;;-145.69;55.26;70793.53;5094229;28;20225;-77
2022/08/08 08:17:58;;;;;;;2.65;1.50;;;;;;;-145.69;60.56;70763.69;5093776;28;20225;-76
2022/08/08 08:20:28;;;;;;;2.60;1.35;;;;;;;-145.69;54.96;70765.69;5093546;28;20233;-76
2022/08/08 08:22:55;;;;;;;3.08;1.45;;;;;;;-145.69;54.13;70783.59;5093699;28;20622;-76
2022/08/08 08:25:21;;;;;;;2.55;1.20;;;;;;;-145.69;53.80;70775.63;5094014;28;20198;-76
2022/08/08 08:27:48;;;;;;;4.45;1.27;;;;;;;-145.69;51.93;70773.66;5093897;28;20198;-76
2022/08/08 08:30:15;;;;;;;2.75;1.30;;;;;;;-145.69;51.96;70761.72;5092330;28;20526;-75
2022/08/08 08:32:41;;;;;;;1.85;1.17;;;;;;;-145.69;52.44;70785.59;5092059;28;20204;-76
2022/08/08 08:35:10;;;;;;;2.72;1.20;;;;;;;-145.69;47.50;70813.44;5091833;28;20197;-78
2022/08/08 08:37:36;;;;;;;1.33;1.02;;;;;;;-145.69;51.41;70803.50;5092095;28;20202;-76
2022/08/08 08:40:05;;;;;;;1.98;1.05;;;;;;;-145.69;46.67;70805.47;5092868;28;20213;-76
2022/08/08 08:42:31;;;;;;;1.27;1.17;;;;;;;-145.69;49.00;70795.53;5093247;28;20233;-81
2022/08/08 08:44:59;;;;;;;3.08;1.27;;;;;;;-145.69;48.21;70791.56;5093352;28;20225;-82
2022/08/08 08:47:26;;;;;;;1.63;1.20;;;;;;;-145.69;47.51;70773.66;5093610;28;20193;-77
2022/08/08 08:49:53;;;;;;;1.42;1.23;;;;;;;-145.69;48.11;70749.78;5093412;28;20195;-77
2022/08/08 08:52:21;;;;;;;1.80;1.20;;;;;;;-145.69;47.02;70743.81;5092931;28;20240;-77
2022/08/08 08:54:49;;;;;;;4.50;0.95;;;;;;;-145.69;47.05;70751.75;5093160;28;20226;-77
2022/08/08 08:57:18;;;;;;;1.40;1.08;;;;;;;-145.69;45.80;70765.69;5091121;28;20576;-75
2022/08/08 08:59:49;;;;;;;1.40;0.93;;;;;;;-145.69;47.05;70737.84;5093275;28;20201;-75
2022/08/08 09:02:20;;;;;;;4.25;1.20;;;;;;;-145.69;47.19;70727.88;5093217;28;20198;-75
2022/08/08 09:04:48;;;;;;;2.90;1.40;;;;;;;-145.69;47.00;70735.84;5092850;28;20230;-78
2022/08/08 09:07:18;;;;;;;1.77;1.20;;;;;;;-145.69;46.23;70721.91;5093170;28;20225;-76
2022/08/08 09:09:49;;;;;;;1.20;1.10;;;;;;;-145.69;44.09;70717.94;5093031;28;20202;-77
2022/08/08 09:12:17;;;;;;;3.42;1.00;;;;;;;-145.69;44.36;70700.03;5093565;28;20233;-76
2022/08/08 09:14:45;;;;;;;2.22;1.20;;;;;;;-145.69;45.30;70715.94;5093022;28;20203;-77
2022/08/08 09:17:12;;;;;;;4.07;1.10;;;;;;;-145.69;45.22;70702.03;5092653;28;20560;-77
2022/08/08 09:19:40;;;;;;;2.07;1.00;;;;;;;-145.69;44.48;70674.16;5092073;28;20432;-77
2022/08/08 09:22:06;;;;;;;1.95;1.10;;;;;;;-145.69;44.40;70670.19;5092750;28;20237;-76
2022/08/08 09:24:34;;;;;;;2.67;1.20;;;;;;;-145.69;42.74;70670.19;5093023;28;20229;-76
2022/08/08 09:27:06;;;;;;;2.92;1.27;;;;;;;-145.69;43.05;70674.16;5092956;28;20201;-76
2022/08/08 09:29:44;;;;;;;2.13;1.10;;;;;;;-145.69;43.38;70676.16;5092637;28;20198;-75
2022/08/08 09:32:16;;;;;;;1.95;1.00;;;;;;;-145.69;43.36;70682.13;5093058;28;20201;-77
2022/08/08 09:34:49;;;;;;;3.03;1.02;;;;;;;-145.69;43.52;70686.09;5092986;28;20202;-77
2022/08/08 09:37:18;;;;;;;1.88;1.00;;;;;;;-145.69;42.41;70704.00;5093003;28;20198;-76
2022/08/08 09:39:57;;;;;;;3.83;1.17;;;;;;;-145.69;43.88;70706.00;5092544;28;20198;-76
2022/08/08 09:42:33;;;;;;;6.65;1.45;;;;;;;-145.69;43.83;70692.06;5094117;28;20205;-75
2022/08/08 09:45:05;;;;;;;1.80;1.02;;;;;;;-145.69;42.66;70708.00;5097024;28;20198;-75
2022/08/08 09:47:32;;;;;;;6.05;1.35;;;;;;;-145.69;42.23;70690.09;5097013;28;20194;-76
2022/08/08 09:50:02;;;;;;;3.20;1.20;;;;;;;-145.69;43.74;70688.09;5096702;28;20198;-74
2022/08/08 09:52:31;;;;;;;1.42;1.00;;;;;;;-145.69;42.34;70706.00;5096247;28;20195;-76
2022/08/08 09:54:57;;;;;;;2.70;1.10;;;;;;;-145.69;43.22;70713.97;5096098;28;20444;-76
2022/08/08 09:57:35;;;;;;;3.95;1.42;;;;;;;-145.69;43.71;70686.09;5096583;28;20198;-78
2022/08/08 10:00:03;;;;;;;1.85;1.20;;;;;;;-145.69;43.61;70674.16;5096588;28;20205;-76
2022/08/08 10:02:35;;;;;;;3.13;1.05;;;;;;;-145.69;42.83;70664.22;5096132;28;20208;-76
2022/08/08 10:05:08;;;;;;;1.73;1.10;;;;;;;-145.69;41.85;70650.28;5096483;28;20237;-77
2022/08/08 10:07:35;;;;;;;2.13;0.93;;;;;;;-145.69;42.33;70630.41;5095027;28;20189;-77
2022/08/08 10:10:03;;;;;;;2.08;1.00;;;;;;;-145.69;42.94;70604.53;5094662;28;20206;-76
2022/08/08 10:12:34;;;;;;;4.28;1.30;;;;;;;-145.69;42.90;70592.59;5095845;28;20209;-76
2022/08/08 10:15:01;;;;;;;3.75;1.00;;;;;;;-145.69;42.03;70600.56;5095738;28;20563;-76
2022/08/08 10:17:30;;;;;;;1.80;1.00;;;;;;;-145.69;42.15;70606.53;5095593;28;20202;-77
2022/08/08 10:19:58;;;;;;;1.70;1.10;;;;;;;-145.69;42.19;70574.69;5095978;28;20288;-77
2022/08/08 10:22:26;;;;;;;7.03;1.20;;;;;;;-145.69;41.01;70576.69;5093409;28;20679;-77
2022/08/08 10:24:58;;;;;;;2.67;1.30;;;;;;;-145.69;41.83;70578.69;5093341;28;20602;-78
2022/08/08 10:27:30;;;;;;;1.80;1.17;;;;;;;-145.69;42.36;70534.91;5096206;28;20202;-76
2022/08/08 10:30:01;;;;;;;1.25;1.13;;;;;;;-145.69;42.93;70566.75;5096034;28;20198;-76
2022/08/08 10:32:34;;;;;;;1.85;1.10;;;;;;;-145.69;41.54;70558.78;5087461;28;20339;-77
2022/08/08 10:35:05;;;;;;;1.45;1.00;;;;;;;-145.69;40.92;70542.88;5074933;28;20202;-78
2022/08/08 10:37:32;;;;;;;2.75;1.20;;;;;;;-145.69;42.24;70570.72;5091275;28;20206;-76
2022/08/08 10:40:01;;;;;;;1.85;0.93;;;;;;;-145.69;41.52;70594.59;5095801;28;20206;-77
2022/08/08 10:42:32;;;;;;;1.48;1.20;;;;;;;-145.69;41.86;70574.69;5094513;28;20194;-76
2022/08/08 10:45:02;;;;;;;3.25;1.20;;;;;;;-145.69;41.13;70594.59;5095437;28;20265;-75
2022/08/08 10:47:28;;;;;;;2.17;1.23;;;;;;;-145.69;39.71;70580.66;5095223;28;20202;-75
2022/08/08 10:49:57;;;;;;;3.22;0.98;;;;;;;-145.69;40.83;70558.78;5095225;28;20244;-77
2022/08/08 10:52:25;;;;;;;2.65;1.30;;;;;;;-145.69;39.11;70550.81;5095498;28;20202;-75
2022/08/08 10:54:53;;;;;;;2.47;1.40;;;;;;;-145.69;39.64;70550.81;5095049;28;20209;-77
2022/08/08 10:57:19;;;;;;;1.63;1.20;;;;;;;-145.69;39.88;70536.91;5094821;28;20222;-76
2022/08/08 10:59:51;;;;;;;4.15;1.00;;;;;;;-145.69;41.67;70546.84;5094835;28;20220;-75
2022/08/08 11:02:25;;;;;;;4.75;1.38;;;;;;;-145.69;41.21;70544.84;5095155;28;20243;-76
2022/08/08 11:04:51;;;;;;;2.85;1.20;;;;;;;-145.69;39.12;70538.88;5094959;28;20225;-76
2022/08/08 11:07:25;;;;;;;1.08;0.93;;;;;;;-145.69;38.47;70530.94;5094887;28;20205;-78
2022/08/08 11:09:52;;;;;;;1.45;1.17;;;;;;;-145.69;37.13;70530.94;5095164;28;20205;-75
2022/08/08 11:12:18;;;;;;;2.60;1.25;;;;;;;-145.69;38.88;70524.97;5095217;28;20204;-77
2022/08/08 11:14:52;;;;;;;2.35;1.30;;;;;;;-145.69;39.16;70497.09;5094999;28;20190;-75
2022/08/08 11:17:22;;;;;;;1.42;1.00;;;;;;;-145.69;37.10;70463.28;5095161;28;20198;-76
2022/08/08 11:19:51;;;;;;;1.17;0.80;;;;;;;-145.69;38.62;70457.31;5095038;28;20202;-77
2022/08/08 11:22:23;;;;;;;2.13;1.00;;;;;;;-145.69;36.15;70457.31;5094923;28;20241;-76
2022/08/08 11:24:50;;;;;;;3.30;1.20;;;;;;;-145.69;36.25;70465.28;5094988;28;20251;-75
2022/08/08 11:27:18;;;;;;;2.08;1.00;;;;;;;-145.69;38.49;70467.28;5094605;28;20202;-75
2022/08/08 11:29:47;;;;;;;1.50;1.23;;;;;;;-145.69;40.83;70437.44;5094703;28;20198;-76
2022/08/08 11:32:15;;;;;;;1.17;1.08;;;;;;;-145.69;40.34;70395.66;5094753;28;20226;-77
2022/08/08 11:34:45;;;;;;;6.18;1.10;;;;;;;-145.69;37.15;70411.56;5094630;28;20205;-76
2022/08/08 11:37:13;;;;;;;1.50;1.10;;;;;;;-145.69;38.33;70403.59;5093554;28;20206;-76
2022/08/08 11:39:40;;;;;;;3.40;0.98;;;;;;;-145.69;35.56;70435.44;5093307;28;20198;-77
2022/08/08 11:42:07;;;;;;;1.70;1.15;;;;;;;-145.69;36.46;70415.53;5094615;28;20221;-77
2022/08/08 11:44:35;;;;;;;1.50;0.90;;;;;;;-145.69;35.83;70403.59;5094417;28;20594;-81
2022/08/08 11:47:02;;;;;;;2.03;0.90;;;;;;;-145.69;35.50;70427.47;5093550;28;20210;-78
2022/08/08 11:49:29;;;;;;;1.85;1.13;;;;;;;-145.69;35.94;70439.41;5093587;28;20201;-75